createdAt,value
2023-01-25T00:00:50.142Z,92.05
2023-01-25T00:01:50.162Z,92.05
2023-01-25T00:02:50.222Z,92.16
2023-01-25T00:03:50.117Z,92.16
2023-01-25T00:04:50.091Z,92.16
2023-01-25T00:05:50.074Z,92.16
2023-01-25T00:06:50.060Z,92.16
2023-01-25T00:07:50.053Z,92.26
2023-01-25T00:08:50.054Z,92.26
2023-01-25T00:09:50.052Z,92.30
2023-01-25T00:10:50.014Z,92.61
2023-01-25T00:11:50.024Z,92.82
2023-01-25T00:12:49.983Z,92.93
2023-01-25T00:13:49.990Z,93.29
2023-01-25T00:14:49.962Z,93.60
2023-01-25T00:15:49.952Z,93.80
2023-01-25T00:16:50.021Z,93.91
2023-01-25T00:17:49.920Z,93.91
2023-01-25T00:18:49.933Z,93.76
2023-01-25T00:19:49.906Z,93.66
2023-01-25T00:20:49.889Z,93.55
2023-01-25T00:21:49.881Z,93.45
2023-01-25T00:22:49.855Z,93.35
2023-01-25T00:23:49.943Z,93.35
2023-01-25T00:24:49.829Z,93.35
2023-01-25T00:25:49.847Z,93.35
2023-01-25T00:26:49.814Z,93.35
2023-01-25T00:27:49.803Z,93.24
2023-01-25T00:28:49.799Z,93.70
2023-01-25T00:29:49.783Z,93.66
2023-01-25T00:30:49.760Z,93.66
2023-01-25T00:31:49.884Z,93.55
2023-01-25T00:32:49.855Z,93.45
2023-01-25T00:33:49.740Z,93.45
2023-01-25T00:34:49.722Z,93.35
2023-01-25T00:35:49.699Z,93.35
2023-01-25T00:36:49.694Z,93.24
2023-01-25T00:37:49.694Z,93.24
2023-01-25T00:38:49.656Z,93.14
2023-01-25T00:39:49.678Z,93.24
2023-01-25T00:40:49.659Z,93.14
2023-01-25T00:41:49.649Z,93.24
2023-01-25T00:42:49.614Z,93.24
2023-01-25T00:43:49.607Z,93.14
2023-01-25T00:44:49.642Z,93.03
2023-01-25T00:45:49.619Z,93.24
2023-01-25T00:46:49.558Z,93.35
2023-01-25T00:47:49.544Z,93.35
2023-01-25T00:48:49.531Z,93.24
2023-01-25T00:49:49.534Z,93.14
2023-01-25T00:50:49.507Z,93.03
2023-01-25T00:51:49.506Z,93.14
2023-01-25T00:52:49.482Z,93.14
2023-01-25T00:53:49.467Z,93.14
2023-01-25T00:54:49.488Z,93.14
2023-01-25T00:55:49.457Z,93.03
2023-01-25T00:56:49.427Z,93.35
2023-01-25T00:57:49.439Z,93.45
2023-01-25T00:58:49.407Z,93.35
2023-01-25T00:59:49.405Z,93.24
2023-01-25T01:00:49.457Z,93.35
2023-01-25T01:01:49.368Z,93.70
2023-01-25T01:02:49.354Z,94.01
2023-01-25T01:03:49.351Z,94.43
2023-01-25T01:04:49.445Z,94.64
2023-01-25T01:05:49.318Z,94.74
2023-01-25T01:06:49.304Z,94.74
2023-01-25T01:07:49.305Z,94.74
2023-01-25T01:08:49.282Z,94.74
2023-01-25T01:09:49.297Z,94.64
2023-01-25T01:10:49.255Z,94.43
2023-01-25T01:11:49.241Z,94.22
2023-01-25T01:12:49.227Z,94.22
2023-01-25T01:13:49.244Z,94.32
2023-01-25T01:14:49.216Z,94.32
2023-01-25T01:15:49.192Z,94.12
2023-01-25T01:16:49.246Z,94.12
2023-01-25T01:17:49.179Z,94.47
2023-01-25T01:18:49.148Z,94.57
2023-01-25T01:19:49.154Z,95.03
2023-01-25T01:20:49.135Z,95.25
2023-01-25T01:21:49.114Z,95.09
2023-01-25T01:22:49.106Z,94.99
2023-01-25T01:23:49.165Z,95.20
2023-01-25T01:24:49.089Z,95.40
2023-01-25T01:25:49.071Z,95.40
2023-01-25T01:26:49.064Z,95.40
2023-01-25T01:27:49.039Z,95.20
2023-01-25T01:28:49.038Z,94.99
2023-01-25T01:29:49.062Z,94.84
2023-01-25T01:30:48.999Z,94.95
2023-01-25T01:31:49.090Z,94.74
2023-01-25T01:32:49.095Z,94.74
2023-01-25T01:33:48.963Z,94.74
2023-01-25T01:34:48.945Z,94.74
2023-01-25T01:35:48.950Z,94.64
2023-01-25T01:36:48.926Z,94.78
2023-01-25T01:37:48.911Z,94.95
2023-01-25T01:38:48.897Z,94.95
2023-01-25T01:39:48.883Z,94.84
2023-01-25T01:40:48.883Z,94.68
2023-01-25T01:41:48.860Z,94.99
2023-01-25T01:42:48.848Z,94.99
2023-01-25T01:43:48.836Z,94.99
2023-01-25T01:44:48.822Z,95.45
2023-01-25T01:45:48.885Z,95.76
2023-01-25T01:46:48.796Z,95.87
2023-01-25T01:47:48.790Z,95.87
2023-01-25T01:48:48.773Z,96.08
2023-01-25T01:49:48.755Z,96.28
2023-01-25T01:50:48.780Z,96.28
2023-01-25T01:51:48.740Z,96.08
2023-01-25T01:52:48.720Z,96.28
2023-01-25T01:53:48.705Z,96.39
2023-01-25T01:54:48.701Z,96.28
2023-01-25T01:55:48.683Z,96.18
2023-01-25T01:56:48.683Z,96.18
2023-01-25T01:57:48.652Z,95.97
2023-01-25T01:58:48.646Z,95.93
2023-01-25T01:59:48.641Z,95.93
2023-01-25T02:00:48.617Z,96.03
2023-01-25T02:01:48.641Z,95.93
2023-01-25T02:02:48.629Z,95.72
2023-01-25T02:03:48.580Z,95.51
2023-01-25T02:04:48.573Z,95.26
2023-01-25T02:05:48.551Z,95.15
2023-01-25T02:06:48.551Z,95.05
2023-01-25T02:07:48.530Z,94.89
2023-01-25T02:08:48.534Z,94.89
2023-01-25T02:09:48.505Z,95.35
2023-01-25T02:10:48.485Z,95.66
2023-01-25T02:11:48.489Z,95.87
2023-01-25T02:12:48.464Z,95.87
2023-01-25T02:13:48.454Z,95.87
2023-01-25T02:14:48.435Z,95.83
2023-01-25T02:15:48.471Z,95.72
2023-01-25T02:16:48.432Z,95.51
2023-01-25T02:17:48.423Z,95.51
2023-01-25T02:18:48.389Z,95.66
2023-01-25T02:19:48.378Z,95.76
2023-01-25T02:20:48.361Z,95.87
2023-01-25T02:21:48.385Z,96.12
2023-01-25T02:22:48.337Z,96.18
2023-01-25T02:23:48.386Z,96.08
2023-01-25T02:24:48.311Z,96.08
2023-01-25T02:25:48.307Z,95.97
2023-01-25T02:26:48.309Z,95.97
2023-01-25T02:27:48.274Z,96.08
2023-01-25T02:28:48.260Z,96.08
2023-01-25T02:29:48.246Z,95.87
2023-01-25T02:30:48.331Z,95.87
2023-01-25T02:31:48.390Z,95.87
2023-01-25T02:32:48.210Z,95.97
2023-01-25T02:33:48.219Z,96.18
2023-01-25T02:34:48.192Z,96.18
2023-01-25T02:35:48.173Z,96.39
2023-01-25T02:36:48.183Z,96.64
2023-01-25T02:37:48.149Z,96.70
2023-01-25T02:38:48.138Z,96.70
2023-01-25T02:39:48.127Z,96.70
2023-01-25T02:40:48.111Z,96.49
2023-01-25T02:41:48.128Z,96.59
2023-01-25T02:42:48.102Z,96.70
2023-01-25T02:43:48.072Z,96.39
2023-01-25T02:44:48.058Z,96.39
2023-01-25T02:45:48.093Z,96.14
2023-01-25T02:46:48.080Z,96.03
2023-01-25T02:47:48.046Z,95.83
2023-01-25T02:48:48.007Z,95.62
2023-01-25T02:49:48.013Z,95.62
2023-01-25T02:50:47.982Z,95.51
2023-01-25T02:51:47.978Z,95.51
2023-01-25T02:52:47.967Z,95.51
2023-01-25T02:53:47.942Z,95.30
2023-01-25T02:54:47.924Z,95.51
2023-01-25T02:55:47.915Z,95.56
2023-01-25T02:56:47.902Z,95.76
2023-01-25T02:57:47.901Z,95.76
2023-01-25T02:58:47.877Z,95.87
2023-01-25T02:59:47.873Z,96.01
2023-01-25T03:00:47.848Z,95.97
2023-01-25T03:01:47.923Z,96.08
2023-01-25T03:02:47.919Z,96.33
2023-01-25T03:03:47.818Z,96.75
2023-01-25T03:04:47.808Z,96.95
2023-01-25T03:05:47.816Z,96.95
2023-01-25T03:06:47.779Z,97.06
2023-01-25T03:07:47.792Z,97.06
2023-01-25T03:08:47.759Z,97.16
2023-01-25T03:09:47.737Z,97.27
2023-01-25T03:10:47.723Z,97.16
2023-01-25T03:11:47.710Z,97.27
2023-01-25T03:12:47.714Z,97.27
2023-01-25T03:13:47.687Z,97.16
2023-01-25T03:14:47.668Z,97.16
2023-01-25T03:15:47.665Z,97.16
2023-01-25T03:16:47.650Z,97.16
2023-01-25T03:17:47.650Z,97.16
2023-01-25T03:18:47.618Z,97.06
2023-01-25T03:19:47.615Z,97.06
2023-01-25T03:20:47.592Z,97.06
2023-01-25T03:21:47.613Z,97.16
2023-01-25T03:22:47.585Z,97.41
2023-01-25T03:23:47.582Z,97.47
2023-01-25T03:24:47.559Z,97.58
2023-01-25T03:25:47.530Z,97.47
2023-01-25T03:26:47.520Z,97.37
2023-01-25T03:27:47.525Z,97.37
2023-01-25T03:28:47.515Z,97.12
2023-01-25T03:29:47.485Z,96.91
2023-01-25T03:30:47.471Z,96.70
2023-01-25T03:31:47.590Z,96.59
2023-01-25T03:32:47.461Z,96.45
2023-01-25T03:33:47.435Z,96.34
2023-01-25T03:34:47.420Z,96.14
2023-01-25T03:35:47.446Z,95.83
2023-01-25T03:36:47.398Z,96.28
2023-01-25T03:37:47.417Z,96.49
2023-01-25T03:38:47.368Z,96.49
2023-01-25T03:39:47.361Z,96.59
2023-01-25T03:40:47.343Z,96.70
2023-01-25T03:41:47.330Z,96.85
2023-01-25T03:42:47.333Z,97.27
2023-01-25T03:43:47.306Z,97.22
2023-01-25T03:44:47.295Z,97.22
2023-01-25T03:45:47.286Z,97.01
2023-01-25T03:46:47.344Z,96.80
2023-01-25T03:47:47.277Z,96.70
2023-01-25T03:48:47.239Z,96.70
2023-01-25T03:49:47.233Z,96.59
2023-01-25T03:50:47.219Z,96.45
2023-01-25T03:51:47.205Z,96.34
2023-01-25T03:52:47.223Z,96.14
2023-01-25T03:53:47.229Z,96.08
2023-01-25T03:54:47.172Z,96.18
2023-01-25T03:55:48.272Z,96.18
2023-01-25T03:56:47.150Z,96.18
2023-01-25T03:57:47.125Z,96.28
2023-01-25T03:58:47.136Z,96.18
2023-01-25T03:59:47.117Z,96.18
2023-01-25T04:00:47.249Z,96.18
2023-01-25T04:01:47.073Z,96.18
2023-01-25T04:02:47.060Z,96.18
2023-01-25T04:03:47.062Z,96.08
2023-01-25T04:04:47.036Z,96.08
2023-01-25T04:05:47.027Z,95.97
2023-01-25T04:06:47.014Z,95.97
2023-01-25T04:07:47.022Z,96.18
2023-01-25T04:08:47.028Z,96.18
2023-01-25T04:09:47.013Z,96.18
2023-01-25T04:10:46.960Z,96.08
2023-01-25T04:11:46.950Z,96.08
2023-01-25T04:12:46.947Z,95.97
2023-01-25T04:13:46.943Z,95.97
2023-01-25T04:14:46.912Z,95.87
2023-01-25T04:15:46.897Z,95.87
2023-01-25T04:16:46.917Z,95.83
2023-01-25T04:17:46.869Z,95.76
2023-01-25T04:18:46.876Z,95.76
2023-01-25T04:19:46.840Z,95.66
2023-01-25T04:20:46.836Z,96.08
2023-01-25T04:21:46.825Z,96.33
2023-01-25T04:22:46.808Z,96.49
2023-01-25T04:23:46.898Z,96.49
2023-01-25T04:24:46.785Z,96.39
2023-01-25T04:25:46.798Z,96.28
2023-01-25T04:26:46.758Z,96.18
2023-01-25T04:27:46.749Z,96.08
2023-01-25T04:28:46.745Z,95.87
2023-01-25T04:29:46.717Z,95.87
2023-01-25T04:30:46.705Z,95.87
2023-01-25T04:31:46.824Z,95.87
2023-01-25T04:32:46.821Z,95.87
2023-01-25T04:33:46.686Z,95.97
2023-01-25T04:34:46.656Z,95.97
2023-01-25T04:35:46.643Z,95.97
2023-01-25T04:36:46.628Z,95.97
2023-01-25T04:37:46.613Z,95.87
2023-01-25T04:38:46.617Z,95.76
2023-01-25T04:39:46.596Z,95.76
2023-01-25T04:40:46.598Z,95.66
2023-01-25T04:41:46.585Z,95.76
2023-01-25T04:42:46.552Z,95.76
2023-01-25T04:43:46.552Z,95.76
2023-01-25T04:44:46.528Z,95.76
2023-01-25T04:45:46.552Z,95.76
2023-01-25T04:46:46.504Z,95.87
2023-01-25T04:47:46.487Z,95.97
2023-01-25T04:48:46.492Z,95.97
2023-01-25T04:49:46.466Z,96.08
2023-01-25T04:50:46.456Z,96.08
2023-01-25T04:51:46.440Z,96.18
2023-01-25T04:52:46.430Z,96.28
2023-01-25T04:53:46.432Z,96.28
2023-01-25T04:54:46.401Z,96.28
2023-01-25T04:55:46.415Z,96.43
2023-01-25T04:56:46.377Z,96.39
2023-01-25T04:57:46.389Z,96.53
2023-01-25T04:58:46.386Z,96.49
2023-01-25T04:59:46.347Z,96.39
2023-01-25T05:00:46.321Z,96.33
2023-01-25T05:01:46.310Z,96.64
2023-01-25T05:02:46.419Z,96.64
2023-01-25T05:03:46.304Z,96.64
2023-01-25T05:04:46.274Z,96.53
2023-01-25T05:05:46.261Z,96.39
2023-01-25T05:06:46.247Z,96.28
2023-01-25T05:07:46.236Z,96.28
2023-01-25T05:08:46.232Z,96.08
2023-01-25T05:09:46.208Z,96.08
2023-01-25T05:10:46.198Z,95.97
2023-01-25T05:11:46.183Z,96.33
2023-01-25T05:12:46.172Z,96.53
2023-01-25T05:13:46.220Z,96.85
2023-01-25T05:14:46.150Z,96.89
2023-01-25T05:15:46.129Z,97.06
2023-01-25T05:16:46.212Z,97.20
2023-01-25T05:17:46.108Z,97.52
2023-01-25T05:18:49.186Z,97.62
2023-01-25T05:19:46.095Z,97.62
2023-01-25T05:20:46.068Z,97.62
2023-01-25T05:21:46.055Z,97.62
2023-01-25T05:22:46.042Z,97.41
2023-01-25T05:23:46.057Z,97.62
2023-01-25T05:24:46.034Z,97.83
2023-01-25T05:25:46.009Z,97.94
2023-01-25T05:26:46.007Z,98.04
2023-01-25T05:27:45.978Z,98.14
2023-01-25T05:28:45.972Z,97.88
2023-01-25T05:29:45.989Z,97.77
2023-01-25T05:30:45.991Z,98.08
2023-01-25T05:31:45.969Z,98.29
2023-01-25T05:32:45.924Z,98.29
2023-01-25T05:33:45.905Z,98.29
2023-01-25T05:34:45.910Z,98.29
2023-01-25T05:35:45.879Z,98.19
2023-01-25T05:36:45.867Z,98.19
2023-01-25T05:37:45.857Z,98.19
2023-01-25T05:38:45.839Z,98.29
2023-01-25T05:39:45.848Z,98.29
2023-01-25T05:40:45.810Z,98.29
2023-01-25T05:41:45.810Z,98.50
2023-01-25T05:42:45.790Z,98.39
2023-01-25T05:43:45.771Z,98.39
2023-01-25T05:44:47.461Z,98.55
2023-01-25T05:45:45.824Z,98.50
2023-01-25T05:46:45.737Z,98.50
2023-01-25T05:47:45.725Z,98.75
2023-01-25T05:48:45.729Z,98.86
2023-01-25T05:49:45.727Z,98.92
2023-01-25T05:50:45.699Z,98.96
2023-01-25T05:51:45.672Z,99.07
2023-01-25T05:52:45.661Z,99.07
2023-01-25T05:53:45.652Z,98.96
2023-01-25T05:54:45.654Z,98.96
2023-01-25T05:55:45.621Z,98.86
2023-01-25T05:56:45.613Z,98.96
2023-01-25T05:57:45.598Z,98.96
2023-01-25T05:58:45.598Z,98.86
2023-01-25T05:59:45.609Z,98.86
2023-01-25T06:00:45.565Z,98.86
2023-01-25T06:01:45.572Z,98.75
2023-01-25T06:02:45.662Z,98.86
2023-01-25T06:03:45.571Z,98.96
2023-01-25T06:04:45.507Z,98.96
2023-01-25T06:05:45.508Z,98.96
2023-01-25T06:06:45.488Z,98.96
2023-01-25T06:07:45.468Z,98.71
2023-01-25T06:08:45.457Z,98.75
2023-01-25T06:09:45.453Z,99.17
2023-01-25T06:10:45.452Z,99.17
2023-01-25T06:11:45.420Z,98.96
2023-01-25T06:12:45.406Z,99.07
2023-01-25T06:13:45.395Z,99.17
2023-01-25T06:14:45.379Z,99.17
2023-01-25T06:15:45.419Z,99.07
2023-01-25T06:16:45.364Z,98.96
2023-01-25T06:17:45.364Z,98.96
2023-01-25T06:18:45.331Z,99.07
2023-01-25T06:19:45.319Z,99.17
2023-01-25T06:20:45.320Z,98.96
2023-01-25T06:21:45.295Z,98.96
2023-01-25T06:22:45.285Z,98.86
2023-01-25T06:23:45.453Z,99.11
2023-01-25T06:24:45.259Z,99.07
2023-01-25T06:25:45.253Z,99.17
2023-01-25T06:26:45.231Z,99.32
2023-01-25T06:27:45.216Z,99.27
2023-01-25T06:28:45.200Z,99.27
2023-01-25T06:29:45.212Z,99.27
2023-01-25T06:30:45.275Z,99.17
2023-01-25T06:31:45.302Z,99.32
2023-01-25T06:32:45.171Z,99.27
2023-01-25T06:33:45.167Z,99.27
2023-01-25T06:34:45.130Z,99.27
2023-01-25T06:35:45.128Z,99.27
2023-01-25T06:36:45.123Z,99.32
2023-01-25T06:37:45.087Z,99.17
2023-01-25T06:38:45.844Z,99.32
2023-01-25T06:39:45.063Z,99.43
2023-01-25T06:40:45.073Z,99.53
2023-01-25T06:41:45.040Z,99.53
2023-01-25T06:42:45.025Z,99.53
2023-01-25T06:43:45.014Z,99.63
2023-01-25T06:44:45.004Z,99.53
2023-01-25T06:45:45.005Z,99.53
2023-01-25T06:46:45.025Z,99.38
2023-01-25T06:47:44.965Z,99.27
2023-01-25T06:48:44.953Z,99.27
2023-01-25T06:49:44.979Z,99.22
2023-01-25T06:50:44.942Z,99.53
2023-01-25T06:51:44.930Z,99.74
2023-01-25T06:52:44.903Z,99.74
2023-01-25T06:53:44.885Z,99.84
2023-01-25T06:54:44.881Z,99.74
2023-01-25T06:55:44.885Z,99.74
2023-01-25T06:56:44.847Z,99.84
2023-01-25T06:57:44.832Z,99.74
2023-01-25T06:58:44.822Z,99.59
2023-01-25T06:59:44.815Z,99.48
2023-01-25T07:00:44.809Z,99.48
2023-01-25T07:01:44.820Z,99.38
2023-01-25T07:02:44.811Z,99.38
2023-01-25T07:03:44.773Z,99.27
2023-01-25T07:04:44.748Z,99.38
2023-01-25T07:05:44.767Z,99.17
2023-01-25T07:06:44.720Z,99.38
2023-01-25T07:07:44.712Z,99.17
2023-01-25T07:08:44.701Z,99.07
2023-01-25T07:09:44.679Z,98.96
2023-01-25T07:10:44.683Z,98.75
2023-01-25T07:11:44.659Z,98.75
2023-01-25T07:12:44.651Z,98.65
2023-01-25T07:13:44.633Z,98.86
2023-01-25T07:14:44.629Z,99.17
2023-01-25T07:15:44.683Z,99.17
2023-01-25T07:16:44.599Z,99.27
2023-01-25T07:17:44.583Z,99.38
2023-01-25T07:18:44.600Z,99.38
2023-01-25T07:19:44.557Z,99.38
2023-01-25T07:20:44.553Z,99.38
2023-01-25T07:21:44.573Z,99.13
2023-01-25T07:22:44.527Z,98.92
2023-01-25T07:23:44.583Z,98.82
2023-01-25T07:24:44.491Z,98.08
2023-01-25T07:25:44.478Z,97.88
2023-01-25T07:26:44.522Z,97.88
2023-01-25T07:27:44.474Z,98.02
2023-01-25T07:28:44.461Z,98.02
2023-01-25T07:29:44.436Z,98.23
2023-01-25T07:30:44.425Z,98.23
2023-01-25T07:31:44.505Z,98.59
2023-01-25T07:32:44.395Z,99.01
2023-01-25T07:33:44.372Z,99.11
2023-01-25T07:34:44.366Z,99.11
2023-01-25T07:35:44.354Z,99.22
2023-01-25T07:36:44.357Z,99.22
2023-01-25T07:37:44.364Z,99.22
2023-01-25T07:38:44.316Z,99.32
2023-01-25T07:39:44.297Z,99.32
2023-01-25T07:40:44.287Z,99.22
2023-01-25T07:41:44.291Z,99.01
2023-01-25T07:42:44.260Z,99.11
2023-01-25T07:43:44.245Z,99.11
2023-01-25T07:44:44.237Z,99.11
2023-01-25T07:45:44.221Z,99.22
2023-01-25T07:46:44.234Z,99.32
2023-01-25T07:47:44.202Z,99.38
2023-01-25T07:48:44.200Z,99.27
2023-01-25T07:49:44.181Z,99.07
2023-01-25T07:50:44.164Z,98.86
2023-01-25T07:51:44.167Z,98.50
2023-01-25T07:52:44.135Z,98.44
2023-01-25T07:53:44.139Z,98.34
2023-01-25T07:54:44.112Z,98.34
2023-01-25T07:55:44.128Z,98.13
2023-01-25T07:56:44.102Z,98.13
2023-01-25T07:57:44.073Z,98.38
2023-01-25T07:58:44.061Z,98.80
2023-01-25T07:59:44.048Z,99.01
2023-01-25T08:00:44.037Z,99.01
2023-01-25T08:01:44.083Z,99.01
2023-01-25T08:02:44.012Z,99.11
2023-01-25T08:03:44.027Z,99.22
2023-01-25T08:04:43.982Z,99.32
2023-01-25T08:05:43.977Z,99.43
2023-01-25T08:06:43.972Z,99.22
2023-01-25T08:07:43.948Z,99.22
2023-01-25T08:08:43.932Z,99.11
2023-01-25T08:09:43.956Z,99.01
2023-01-25T08:10:43.943Z,99.01
2023-01-25T08:11:43.913Z,99.11
2023-01-25T08:12:43.886Z,99.22
2023-01-25T08:13:43.873Z,99.22
2023-01-25T08:14:43.853Z,99.22
2023-01-25T08:15:43.851Z,99.11
2023-01-25T08:16:43.851Z,99.11
2023-01-25T08:17:43.828Z,98.96
2023-01-25T08:18:43.817Z,98.75
2023-01-25T08:19:43.796Z,98.34
2023-01-25T08:20:43.777Z,98.34
2023-01-25T08:21:43.785Z,98.44
2023-01-25T08:22:43.759Z,98.34
2023-01-25T08:23:43.743Z,98.55
2023-01-25T08:24:43.784Z,98.44
2023-01-25T08:25:43.747Z,98.34
2023-01-25T08:26:43.742Z,98.08
2023-01-25T08:27:43.704Z,97.88
2023-01-25T08:28:43.681Z,97.77
2023-01-25T08:29:43.677Z,97.41
2023-01-25T08:30:56.583Z,96.42
2023-01-25T08:31:43.753Z,96.77
2023-01-25T08:32:43.626Z,96.88
2023-01-25T08:33:43.619Z,97.09
2023-01-25T08:34:43.604Z,97.19
2023-01-25T08:35:43.600Z,97.04
2023-01-25T08:36:43.624Z,96.88
2023-01-25T08:37:43.567Z,96.83
2023-01-25T08:38:43.549Z,96.88
2023-01-25T08:39:43.554Z,97.09
2023-01-25T08:40:43.533Z,97.40
2023-01-25T08:41:43.555Z,97.30
2023-01-25T08:42:43.522Z,97.50
2023-01-25T08:43:43.506Z,97.50
2023-01-25T08:44:43.484Z,97.40
2023-01-25T08:45:43.485Z,97.50
2023-01-25T08:46:43.466Z,97.09
2023-01-25T08:47:43.440Z,96.88
2023-01-25T08:48:43.443Z,97.44
2023-01-25T08:49:43.418Z,97.86
2023-01-25T08:50:43.409Z,97.86
2023-01-25T08:51:43.409Z,97.92
2023-01-25T08:52:43.372Z,97.81
2023-01-25T08:53:43.393Z,98.07
2023-01-25T08:54:43.354Z,98.13
2023-01-25T08:55:43.337Z,98.02
2023-01-25T08:56:43.339Z,97.92
2023-01-25T08:57:43.338Z,97.92
2023-01-25T08:58:43.305Z,97.77
2023-01-25T08:59:43.291Z,97.46
2023-01-25T09:00:43.300Z,97.25
2023-01-25T09:01:43.264Z,97.04
2023-01-25T09:02:43.263Z,96.79
2023-01-25T09:03:43.370Z,96.31
2023-01-25T09:04:43.223Z,96.42
2023-01-25T09:05:43.212Z,96.52
2023-01-25T09:06:43.199Z,96.48
2023-01-25T09:07:43.203Z,96.48
2023-01-25T09:08:43.178Z,96.26
2023-01-25T09:09:43.164Z,95.95
2023-01-25T09:10:43.150Z,95.95
2023-01-25T09:11:43.148Z,95.85
2023-01-25T09:12:43.155Z,95.85
2023-01-25T09:13:43.132Z,95.60
2023-01-25T09:14:43.099Z,95.60
2023-01-25T09:15:43.093Z,95.50
2023-01-25T09:16:43.071Z,95.39
2023-01-25T09:17:43.075Z,95.18
2023-01-25T09:18:43.046Z,95.08
2023-01-25T09:19:43.042Z,94.98
2023-01-25T09:20:43.018Z,94.98
2023-01-25T09:21:43.012Z,95.23
2023-01-25T09:22:43.011Z,95.85
2023-01-25T09:23:50.979Z,95.95
2023-01-25T09:24:43.001Z,95.95
2023-01-25T09:25:42.955Z,95.81
2023-01-25T09:26:47.814Z,95.50
2023-01-25T09:27:42.949Z,95.39
2023-01-25T09:28:42.919Z,95.08
2023-01-25T09:29:49.560Z,94.45
2023-01-25T09:30:47.927Z,95.27
2023-01-25T09:31:42.993Z,96.25
2023-01-25T09:32:43.073Z,96.67
2023-01-25T09:33:42.920Z,96.94
2023-01-25T09:34:42.841Z,96.88
2023-01-25T09:35:42.834Z,96.88
2023-01-25T09:36:42.832Z,97.09
2023-01-25T09:37:42.823Z,97.14
2023-01-25T09:38:42.792Z,97.14
2023-01-25T09:39:42.776Z,97.14
2023-01-25T09:40:42.762Z,97.04
2023-01-25T09:41:42.802Z,97.14
2023-01-25T09:42:42.775Z,97.04
2023-01-25T09:43:42.723Z,97.09
2023-01-25T09:44:42.723Z,97.30
2023-01-25T09:45:42.724Z,97.14
2023-01-25T09:46:42.737Z,96.83
2023-01-25T09:47:42.680Z,96.88
2023-01-25T09:48:42.683Z,96.88
2023-01-25T09:49:42.653Z,96.77
2023-01-25T09:50:42.650Z,96.77
2023-01-25T09:51:42.644Z,97.19
2023-01-25T09:52:42.623Z,97.30
2023-01-25T09:53:42.621Z,96.77
2023-01-25T09:54:46.970Z,96.88
2023-01-25T09:55:42.572Z,97.09
2023-01-25T09:56:42.561Z,96.98
2023-01-25T09:57:42.551Z,96.67
2023-01-25T09:58:42.549Z,97.30
2023-01-25T09:59:42.529Z,97.50
2023-01-25T10:00:42.510Z,97.50
2023-01-25T10:01:42.745Z,97.61
2023-01-25T10:02:42.622Z,97.81
2023-01-25T10:03:42.488Z,97.92
2023-01-25T10:04:42.460Z,97.71
2023-01-25T10:05:42.468Z,97.40
2023-01-25T10:06:48.777Z,97.19
2023-01-25T10:07:42.428Z,97.09
2023-01-25T10:08:42.422Z,97.30
2023-01-25T10:09:42.397Z,97.50
2023-01-25T10:10:42.397Z,97.30
2023-01-25T10:11:44.565Z,97.19
2023-01-25T10:12:42.354Z,96.98
2023-01-25T10:13:42.364Z,96.73
2023-01-25T10:14:42.337Z,96.67
2023-01-25T10:15:42.368Z,96.88
2023-01-25T10:16:42.358Z,97.09
2023-01-25T10:17:42.368Z,97.04
2023-01-25T10:18:42.304Z,96.52
2023-01-25T10:19:42.271Z,96.21
2023-01-25T10:20:42.256Z,96.56
2023-01-25T10:21:42.243Z,97.09
2023-01-25T10:22:42.246Z,97.03
2023-01-25T10:23:42.237Z,97.19
2023-01-25T10:24:42.207Z,97.13
2023-01-25T10:25:42.200Z,97.13
2023-01-25T10:26:42.183Z,96.98
2023-01-25T10:27:42.165Z,96.98
2023-01-25T10:28:42.212Z,96.88
2023-01-25T10:29:42.142Z,96.67
2023-01-25T10:30:42.157Z,96.31
2023-01-25T10:31:42.140Z,96.11
2023-01-25T10:32:55.324Z,95.79
2023-01-25T10:33:42.127Z,95.48
2023-01-25T10:34:55.393Z,95.68
2023-01-25T10:35:45.022Z,95.89
2023-01-25T10:36:42.051Z,96.11
2023-01-25T10:37:42.044Z,95.94
2023-01-25T10:38:42.050Z,96.00
2023-01-25T10:39:42.024Z,95.89
2023-01-25T10:40:41.999Z,95.62
2023-01-25T10:41:41.992Z,96.04
2023-01-25T10:42:41.980Z,96.00
2023-01-25T10:43:41.981Z,95.73
2023-01-25T10:44:42.148Z,95.94
2023-01-25T10:45:41.936Z,95.73
2023-01-25T10:46:42.003Z,96.04
2023-01-25T10:47:41.915Z,95.83
2023-01-25T10:48:41.938Z,95.94
2023-01-25T10:49:41.914Z,95.73
2023-01-25T10:50:41.877Z,95.52
2023-01-25T10:51:41.880Z,95.52
2023-01-25T10:52:41.848Z,95.94
2023-01-25T10:53:41.850Z,96.04
2023-01-25T10:54:41.853Z,96.15
2023-01-25T10:55:41.811Z,96.15
2023-01-25T10:56:41.799Z,95.94
2023-01-25T10:57:41.786Z,96.04
2023-01-25T10:58:41.771Z,96.15
2023-01-25T10:59:41.771Z,96.92
2023-01-25T11:00:41.748Z,97.24
2023-01-25T11:01:41.796Z,97.65
2023-01-25T11:02:41.821Z,97.34
2023-01-25T11:03:41.760Z,97.34
2023-01-25T11:04:43.028Z,97.30
2023-01-25T11:05:41.722Z,97.34
2023-01-25T11:06:41.673Z,97.34
2023-01-25T11:07:41.660Z,97.44
2023-01-25T11:08:41.643Z,97.44
2023-01-25T11:09:41.655Z,97.50
2023-01-25T11:10:41.622Z,97.09
2023-01-25T11:11:41.719Z,96.67
2023-01-25T11:12:41.598Z,96.77
2023-01-25T11:13:41.600Z,96.77
2023-01-25T11:14:41.581Z,96.67
2023-01-25T11:15:41.718Z,96.77
2023-01-25T11:16:41.605Z,97.13
2023-01-25T11:17:41.536Z,97.24
2023-01-25T11:18:41.519Z,97.34
2023-01-25T11:19:41.528Z,97.30
2023-01-25T11:20:41.488Z,96.88
2023-01-25T11:21:41.496Z,96.46
2023-01-25T11:22:41.473Z,96.04
2023-01-25T11:23:41.454Z,96.15
2023-01-25T11:24:41.454Z,96.00
2023-01-25T11:25:41.450Z,95.79
2023-01-25T11:26:41.418Z,95.33
2023-01-25T11:27:41.418Z,95.23
2023-01-25T11:28:41.388Z,94.70
2023-01-25T11:29:41.398Z,94.60
2023-01-25T11:30:41.387Z,94.39
2023-01-25T11:31:41.442Z,93.98
2023-01-25T11:32:41.360Z,94.08
2023-01-25T11:33:41.330Z,94.24
2023-01-25T11:34:41.325Z,94.14
2023-01-25T11:35:41.300Z,94.04
2023-01-25T11:36:41.288Z,93.73
2023-01-25T11:37:41.294Z,93.73
2023-01-25T11:38:41.262Z,93.41
2023-01-25T11:39:41.267Z,93.20
2023-01-25T11:40:41.265Z,93.66
2023-01-25T11:41:41.236Z,93.98
2023-01-25T11:42:41.221Z,94.29
2023-01-25T11:43:41.249Z,94.75
2023-01-25T11:44:41.227Z,94.85
2023-01-25T11:45:41.203Z,94.96
2023-01-25T11:46:41.238Z,95.06
2023-01-25T11:47:41.172Z,95.27
2023-01-25T11:48:41.133Z,95.12
2023-01-25T11:49:41.146Z,95.27
2023-01-25T11:50:41.120Z,95.48
2023-01-25T11:51:41.121Z,95.68
2023-01-25T11:52:41.086Z,95.89
2023-01-25T11:53:41.197Z,95.89
2023-01-25T11:54:41.080Z,95.79
2023-01-25T11:55:41.043Z,95.79
2023-01-25T11:56:41.039Z,96.00
2023-01-25T11:57:41.023Z,95.89
2023-01-25T11:58:41.007Z,95.79
2023-01-25T11:59:41.006Z,95.89
2023-01-25T12:00:40.981Z,96.11
2023-01-25T12:01:40.972Z,96.25
2023-01-25T12:02:40.978Z,96.46
2023-01-25T12:03:40.998Z,96.67
2023-01-25T12:04:40.951Z,96.56
2023-01-25T12:05:40.924Z,96.88
2023-01-25T12:06:40.905Z,96.67
2023-01-25T12:07:40.900Z,96.42
2023-01-25T12:08:40.886Z,96.56
2023-01-25T12:09:40.922Z,96.67
2023-01-25T12:10:40.865Z,96.77
2023-01-25T12:11:40.840Z,96.42
2023-01-25T12:12:40.828Z,96.62
2023-01-25T12:13:40.833Z,96.73
2023-01-25T12:14:40.807Z,96.11
2023-01-25T12:15:40.801Z,95.68
2023-01-25T12:16:40.781Z,95.68
2023-01-25T12:17:40.767Z,96.11
2023-01-25T12:18:40.760Z,96.42
2023-01-25T12:19:40.739Z,96.62
2023-01-25T12:20:40.742Z,96.52
2023-01-25T12:21:40.715Z,96.67
2023-01-25T12:22:40.716Z,96.77
2023-01-25T12:23:40.717Z,96.67
2023-01-25T12:24:40.681Z,96.52
2023-01-25T12:25:40.693Z,96.31
2023-01-25T12:26:40.655Z,96.11
2023-01-25T12:27:40.638Z,96.00
2023-01-25T12:28:40.626Z,95.89
2023-01-25T12:29:40.615Z,95.85
2023-01-25T12:30:40.636Z,95.85
2023-01-25T12:31:40.693Z,95.64
2023-01-25T12:32:40.576Z,95.23
2023-01-25T12:33:40.561Z,95.18
2023-01-25T12:34:40.556Z,94.98
2023-01-25T12:35:40.549Z,94.98
2023-01-25T12:36:40.538Z,94.87
2023-01-25T12:37:40.511Z,94.87
2023-01-25T12:38:40.500Z,94.66
2023-01-25T12:39:40.481Z,94.45
2023-01-25T12:40:40.486Z,94.45
2023-01-25T12:41:40.483Z,94.45
2023-01-25T12:42:40.454Z,94.56
2023-01-25T12:43:40.431Z,94.51
2023-01-25T12:44:40.423Z,94.14
2023-01-25T12:45:40.425Z,94.10
2023-01-25T12:46:40.512Z,93.99
2023-01-25T12:47:40.395Z,93.79
2023-01-25T12:48:40.376Z,93.79
2023-01-25T12:49:40.354Z,93.68
2023-01-25T12:50:40.358Z,93.16
2023-01-25T12:51:40.349Z,93.48
2023-01-25T12:52:40.332Z,93.54